sensor_id;sensor_type;location;lat;lon;timestamp;temperature;humidity
6954;DHT22;3516;47.980;8.808;2022-07-24T06:32:42;27.20;85.20
6954;DHT22;3516;47.980;8.808;2022-07-24T06:35:09;27.20;85.20
6954;DHT22;3516;47.980;8.808;2022-07-24T06:37:36;27.20;85.20
6954;DHT22;3516;47.980;8.808;2022-07-24T06:40:03;27.20;85.20
6954;DHT22;3516;47.980;8.808;2022-07-24T06:42:30;27.20;85.20
6954;DHT22;3516;47.980;8.808;2022-07-24T06:44:56;27.20;85.20
6954;DHT22;3516;47.980;8.808;2022-07-24T06:47:23;27.20;85.20
6954;DHT22;3516;47.980;8.808;2022-07-24T06:49:52;27.20;85.20
6954;DHT22;3516;47.980;8.808;2022-07-24T06:52:19;27.20;85.20
6954;DHT22;3516;47.980;8.808;2022-07-24T06:54:46;27.20;85.20
6954;DHT22;3516;47.980;8.808;2022-07-24T06:57:13;27.20;85.20
6954;DHT22;3516;47.980;8.808;2022-07-24T06:59:40;27.20;85.20
6954;DHT22;3516;47.980;8.808;2022-07-24T07:02:07;27.20;85.20
6954;DHT22;3516;47.980;8.808;2022-07-24T07:04:33;27.20;85.20
6954;DHT22;3516;47.980;8.808;2022-07-24T07:07:01;27.20;85.20
6954;DHT22;3516;47.980;8.808;2022-07-24T07:09:28;27.20;85.10
6954;DHT22;3516;47.980;8.808;2022-07-24T07:11:55;27.20;85.10
6954;DHT22;3516;47.980;8.808;2022-07-24T07:14:22;27.20;85.00
6954;DHT22;3516;47.980;8.808;2022-07-24T07:16:48;27.20;84.90
6954;DHT22;3516;47.980;8.808;2022-07-24T07:19:15;27.20;84.90
6954;DHT22;3516;47.980;8.808;2022-07-24T07:21:42;27.10;84.70
6954;DHT22;3516;47.980;8.808;2022-07-24T07:24:10;27.20;84.70
6954;DHT22;3516;47.980;8.808;2022-07-24T07:26:37;27.10;84.60
6954;DHT22;3516;47.980;8.808;2022-07-24T07:29:03;27.20;84.60
6954;DHT22;3516;47.980;8.808;2022-07-24T07:31:30;27.10;84.40
6954;DHT22;3516;47.980;8.808;2022-07-24T07:33:57;27.10;84.40
6954;DHT22;3516;47.980;8.808;2022-07-24T07:36:24;27.10;84.30
6954;DHT22;3516;47.980;8.808;2022-07-24T07:38:51;27.10;84.40
6954;DHT22;3516;47.980;8.808;2022-07-24T07:41:19;27.20;84.50
6954;DHT22;3516;47.980;8.808;2022-07-24T07:43:45;27.10;84.30
6954;DHT22;3516;47.980;8.808;2022-07-24T07:46:13;27.20;84.40
6954;DHT22;3516;47.980;8.808;2022-07-24T07:48:39;27.20;84.40
6954;DHT22;3516;47.980;8.808;2022-07-24T07:51:06;27.20;84.40
6954;DHT22;3516;47.980;8.808;2022-07-24T07:53:33;27.20;84.40
6954;DHT22;3516;47.980;8.808;2022-07-24T07:55:59;27.20;84.30
6954;DHT22;3516;47.980;8.808;2022-07-24T07:58:28;27.10;84.10
6954;DHT22;3516;47.980;8.808;2022-07-24T08:00:54;27.10;84.10
6954;DHT22;3516;47.980;8.808;2022-07-24T08:03:21;27.10;84.00
6954;DHT22;3516;47.980;8.808;2022-07-24T08:05:48;27.10;83.90
6954;DHT22;3516;47.980;8.808;2022-07-24T08:08:14;27.10;83.90
6954;DHT22;3516;47.980;8.808;2022-07-24T08:10:41;27.10;83.80
6954;DHT22;3516;47.980;8.808;2022-07-24T08:13:08;27.10;83.70
6954;DHT22;3516;47.980;8.808;2022-07-24T08:15:36;27.10;83.80
6954;DHT22;3516;47.980;8.808;2022-07-24T08:18:02;27.10;83.80
6954;DHT22;3516;47.980;8.808;2022-07-24T08:20:29;27.10;83.80
6954;DHT22;3516;47.980;8.808;2022-07-24T08:22:56;27.10;83.80
6954;DHT22;3516;47.980;8.808;2022-07-24T08:25:22;27.20;83.90
6954;DHT22;3516;47.980;8.808;2022-07-24T08:27:49;27.20;83.90
6954;DHT22;3516;47.980;8.808;2022-07-24T08:30:16;27.20;83.80
6954;DHT22;3516;47.980;8.808;2022-07-24T08:32:44;27.10;83.60
6954;DHT22;3516;47.980;8.808;2022-07-24T08:35:11;27.20;83.60
6954;DHT22;3516;47.980;8.808;2022-07-24T08:37:39;27.10;83.50
6954;DHT22;3516;47.980;8.808;2022-07-24T08:40:07;27.20;83.40
6954;DHT22;3516;47.980;8.808;2022-07-24T08:42:34;27.10;83.10
6954;DHT22;3516;47.980;8.808;2022-07-24T08:45:01;27.10;82.90
6954;DHT22;3516;47.980;8.808;2022-07-24T08:47:28;27.10;82.60
6954;DHT22;3516;47.980;8.808;2022-07-24T08:49:59;27.10;82.40
6954;DHT22;3516;47.980;8.808;2022-07-24T08:52:27;27.10;82.10
6954;DHT22;3516;47.980;8.808;2022-07-24T08:54:53;27.10;81.90
6954;DHT22;3516;47.980;8.808;2022-07-24T08:57:20;27.10;81.60
6954;DHT22;3516;47.980;8.808;2022-07-24T08:59:47;27.10;81.40
6954;DHT22;3516;47.980;8.808;2022-07-24T09:02:13;27.10;81.00
6954;DHT22;3516;47.980;8.808;2022-07-24T09:04:41;27.10;80.80
6954;DHT22;3516;47.980;8.808;2022-07-24T09:07:10;27.10;80.80
6954;DHT22;3516;47.980;8.808;2022-07-24T09:09:38;27.10;80.80
6954;DHT22;3516;47.980;8.808;2022-07-24T09:12:06;27.10;80.80
6954;DHT22;3516;47.980;8.808;2022-07-24T09:14:33;27.10;81.10
6954;DHT22;3516;47.980;8.808;2022-07-24T09:17:01;27.10;80.30
6954;DHT22;3516;47.980;8.808;2022-07-24T09:19:28;27.10;80.10
6954;DHT22;3516;47.980;8.808;2022-07-24T09:21:54;27.10;80.00
6954;DHT22;3516;47.980;8.808;2022-07-24T09:24:22;27.10;79.80
6954;DHT22;3516;47.980;8.808;2022-07-24T09:26:50;27.10;79.70
6954;DHT22;3516;47.980;8.808;2022-07-24T09:29:17;27.10;79.50
6954;DHT22;3516;47.980;8.808;2022-07-24T09:31:51;27.10;79.40
6954;DHT22;3516;47.980;8.808;2022-07-24T09:34:18;27.10;79.30
6954;DHT22;3516;47.980;8.808;2022-07-24T09:36:54;27.10;79.20
6954;DHT22;3516;47.980;8.808;2022-07-24T09:39:21;27.10;79.10
6954;DHT22;3516;47.980;8.808;2022-07-24T09:41:51;27.10;79.00
6954;DHT22;3516;47.980;8.808;2022-07-24T09:44:18;27.10;78.60
6954;DHT22;3516;47.980;8.808;2022-07-24T09:46:46;27.10;78.50
6954;DHT22;3516;47.980;8.808;2022-07-24T09:49:18;27.10;78.20
6954;DHT22;3516;47.980;8.808;2022-07-24T09:51:44;27.10;77.90
6954;DHT22;3516;47.980;8.808;2022-07-24T09:54:12;27.10;77.60
6954;DHT22;3516;47.980;8.808;2022-07-24T09:56:55;27.10;77.30
6954;DHT22;3516;47.980;8.808;2022-07-24T09:59:40;27.10;77.00
6954;DHT22;3516;47.980;8.808;2022-07-24T10:02:07;27.10;76.70
6954;DHT22;3516;47.980;8.808;2022-07-24T10:04:34;27.00;76.20
6954;DHT22;3516;47.980;8.808;2022-07-24T10:07:01;27.00;75.80
6954;DHT22;3516;47.980;8.808;2022-07-24T10:09:29;27.00;75.40
6954;DHT22;3516;47.980;8.808;2022-07-24T10:11:57;27.00;74.80
6954;DHT22;3516;47.980;8.808;2022-07-24T10:14:23;27.00;74.70
6954;DHT22;3516;47.980;8.808;2022-07-24T10:16:55;27.00;74.70
6954;DHT22;3516;47.980;8.808;2022-07-24T10:19:26;27.00;74.30
6954;DHT22;3516;47.980;8.808;2022-07-24T10:21:58;27.00;73.90
6954;DHT22;3516;47.980;8.808;2022-07-24T10:27:23;27.00;73.00
6954;DHT22;3516;47.980;8.808;2022-07-24T10:29:50;27.00;72.70
6954;DHT22;3516;47.980;8.808;2022-07-24T10:32:18;27.00;72.40
6954;DHT22;3516;47.980;8.808;2022-07-24T10:34:46;27.00;72.10
6954;DHT22;3516;47.980;8.808;2022-07-24T10:37:15;27.00;71.80
6954;DHT22;3516;47.980;8.808;2022-07-24T10:39:47;27.00;71.60
6954;DHT22;3516;47.980;8.808;2022-07-24T10:42:16;27.00;71.30
6954;DHT22;3516;47.980;8.808;2022-07-24T10:44:44;27.10;71.20
6954;DHT22;3516;47.980;8.808;2022-07-24T10:47:31;27.10;71.00
6954;DHT22;3516;47.980;8.808;2022-07-24T10:49:58;27.10;70.70
6954;DHT22;3516;47.980;8.808;2022-07-24T10:52:27;27.10;70.50
6954;DHT22;3516;47.980;8.808;2022-07-24T10:57:45;27.10;70.00
6954;DHT22;3516;47.980;8.808;2022-07-24T11:00:22;27.10;69.70
6954;DHT22;3516;47.980;8.808;2022-07-24T11:02:54;27.10;69.50
6954;DHT22;3516;47.980;8.808;2022-07-24T11:05:25;27.20;69.20
6954;DHT22;3516;47.980;8.808;2022-07-24T11:10:43;27.20;68.90
6954;DHT22;3516;47.980;8.808;2022-07-24T11:16:12;27.20;68.60
6954;DHT22;3516;47.980;8.808;2022-07-24T11:19:23;27.20;68.20
6954;DHT22;3516;47.980;8.808;2022-07-24T11:21:32;27.20;67.90
6954;DHT22;3516;47.980;8.808;2022-07-24T11:26:50;27.20;67.50
6954;DHT22;3516;47.980;8.808;2022-07-24T11:29:17;27.20;67.10
6954;DHT22;3516;47.980;8.808;2022-07-24T11:31:48;27.20;66.90
6954;DHT22;3516;47.980;8.808;2022-07-24T11:34:15;27.20;66.70
6954;DHT22;3516;47.980;8.808;2022-07-24T11:36:43;27.20;66.40
6954;DHT22;3516;47.980;8.808;2022-07-24T11:39:10;27.20;66.20
6954;DHT22;3516;47.980;8.808;2022-07-24T11:41:42;27.20;65.90
6954;DHT22;3516;47.980;8.808;2022-07-24T11:44:10;27.20;65.70
6954;DHT22;3516;47.980;8.808;2022-07-24T11:46:38;27.20;65.40
6954;DHT22;3516;47.980;8.808;2022-07-24T11:49:06;27.20;65.20
6954;DHT22;3516;47.980;8.808;2022-07-24T11:51:40;27.20;64.90
6954;DHT22;3516;47.980;8.808;2022-07-24T11:54:06;27.20;64.70
6954;DHT22;3516;47.980;8.808;2022-07-24T11:56:33;27.20;64.30
6954;DHT22;3516;47.980;8.808;2022-07-24T11:59:00;27.20;64.00
6954;DHT22;3516;47.980;8.808;2022-07-24T12:01:26;27.20;63.70
6954;DHT22;3516;47.980;8.808;2022-07-24T12:03:54;27.20;63.40
6954;DHT22;3516;47.980;8.808;2022-07-24T12:06:23;27.20;63.00
6954;DHT22;3516;47.980;8.808;2022-07-24T12:08:51;27.20;62.80
6954;DHT22;3516;47.980;8.808;2022-07-24T12:11:21;27.10;62.70
6954;DHT22;3516;47.980;8.808;2022-07-24T12:13:48;27.20;62.80
6954;DHT22;3516;47.980;8.808;2022-07-24T12:16:22;27.20;62.80
6954;DHT22;3516;47.980;8.808;2022-07-24T12:18:49;27.20;62.50
6954;DHT22;3516;47.980;8.808;2022-07-24T12:21:15;27.20;62.30
6954;DHT22;3516;47.980;8.808;2022-07-24T12:23:45;27.20;62.10
6954;DHT22;3516;47.980;8.808;2022-07-24T12:26:13;27.20;62.10
6954;DHT22;3516;47.980;8.808;2022-07-24T12:28:40;27.30;62.10
6954;DHT22;3516;47.980;8.808;2022-07-24T12:31:07;27.30;62.00
6954;DHT22;3516;47.980;8.808;2022-07-24T12:33:35;27.30;61.90
6954;DHT22;3516;47.980;8.808;2022-07-24T12:36:03;27.30;61.80
6954;DHT22;3516;47.980;8.808;2022-07-24T12:38:34;27.30;61.80
6954;DHT22;3516;47.980;8.808;2022-07-24T12:41:04;27.30;61.70
6954;DHT22;3516;47.980;8.808;2022-07-24T12:43:31;27.40;61.80
6954;DHT22;3516;47.980;8.808;2022-07-24T12:46:05;27.40;61.70
6954;DHT22;3516;47.980;8.808;2022-07-24T12:48:35;27.40;61.70
6954;DHT22;3516;47.980;8.808;2022-07-24T12:51:11;27.40;61.60
6954;DHT22;3516;47.980;8.808;2022-07-24T12:53:39;27.40;61.70
6954;DHT22;3516;47.980;8.808;2022-07-24T12:56:10;27.40;61.70
6954;DHT22;3516;47.980;8.808;2022-07-24T12:58:54;27.40;61.70
6954;DHT22;3516;47.980;8.808;2022-07-24T13:01:22;27.40;61.70
6954;DHT22;3516;47.980;8.808;2022-07-24T13:04:00;27.40;61.80
6954;DHT22;3516;47.980;8.808;2022-07-24T13:06:32;27.40;61.80
6954;DHT22;3516;47.980;8.808;2022-07-24T13:09:00;27.50;62.00
6954;DHT22;3516;47.980;8.808;2022-07-24T13:11:29;27.50;62.00
6954;DHT22;3516;47.980;8.808;2022-07-24T13:13:56;27.50;62.10
6954;DHT22;3516;47.980;8.808;2022-07-24T13:16:26;27.50;62.10
6954;DHT22;3516;47.980;8.808;2022-07-24T13:18:54;27.50;62.10
6954;DHT22;3516;47.980;8.808;2022-07-24T13:21:21;27.50;62.20
6954;DHT22;3516;47.980;8.808;2022-07-24T13:23:48;27.50;62.20
6954;DHT22;3516;47.980;8.808;2022-07-24T13:26:15;27.50;62.20
6954;DHT22;3516;47.980;8.808;2022-07-24T13:28:43;27.50;62.30
6954;DHT22;3516;47.980;8.808;2022-07-24T13:31:10;27.50;62.30
6954;DHT22;3516;47.980;8.808;2022-07-24T13:33:36;27.50;63.00
6954;DHT22;3516;47.980;8.808;2022-07-24T13:36:03;27.50;62.20
6954;DHT22;3516;47.980;8.808;2022-07-24T13:38:30;27.50;62.10
6954;DHT22;3516;47.980;8.808;2022-07-24T13:40:57;27.50;62.10
6954;DHT22;3516;47.980;8.808;2022-07-24T13:43:24;27.50;62.10
6954;DHT22;3516;47.980;8.808;2022-07-24T13:45:52;27.50;62.10
6954;DHT22;3516;47.980;8.808;2022-07-24T13:48:18;27.50;62.10
6954;DHT22;3516;47.980;8.808;2022-07-24T13:50:45;27.50;62.10
6954;DHT22;3516;47.980;8.808;2022-07-24T13:53:12;27.50;62.20
6954;DHT22;3516;47.980;8.808;2022-07-24T13:55:38;27.50;62.20
6954;DHT22;3516;47.980;8.808;2022-07-24T13:58:05;27.50;62.20
6954;DHT22;3516;47.980;8.808;2022-07-24T14:00:32;27.50;62.20
6954;DHT22;3516;47.980;8.808;2022-07-24T14:03:00;27.60;62.20
6954;DHT22;3516;47.980;8.808;2022-07-24T14:05:27;27.50;62.20
6954;DHT22;3516;47.980;8.808;2022-07-24T14:07:54;27.50;62.20
6954;DHT22;3516;47.980;8.808;2022-07-24T14:10:21;27.50;62.20
6954;DHT22;3516;47.980;8.808;2022-07-24T14:12:48;27.60;62.20
6954;DHT22;3516;47.980;8.808;2022-07-24T14:15:15;27.60;62.20
6954;DHT22;3516;47.980;8.808;2022-07-24T14:17:42;27.60;62.20
6954;DHT22;3516;47.980;8.808;2022-07-24T14:20:12;27.60;62.20
6954;DHT22;3516;47.980;8.808;2022-07-24T14:22:39;27.60;62.10
6954;DHT22;3516;47.980;8.808;2022-07-24T14:25:07;27.60;62.00
6954;DHT22;3516;47.980;8.808;2022-07-24T14:27:34;27.60;61.90
6954;DHT22;3516;47.980;8.808;2022-07-24T14:30:01;27.60;61.80
6954;DHT22;3516;47.980;8.808;2022-07-24T14:32:29;27.60;61.80
6954;DHT22;3516;47.980;8.808;2022-07-24T14:34:55;27.60;61.70
6954;DHT22;3516;47.980;8.808;2022-07-24T14:37:23;27.50;61.50
6954;DHT22;3516;47.980;8.808;2022-07-24T14:39:50;27.60;61.50
6954;DHT22;3516;47.980;8.808;2022-07-24T14:42:17;27.60;61.50
6954;DHT22;3516;47.980;8.808;2022-07-24T14:44:43;27.60;61.40
6954;DHT22;3516;47.980;8.808;2022-07-24T14:47:10;27.60;61.40
6954;DHT22;3516;47.980;8.808;2022-07-24T14:49:37;27.60;61.30
6954;DHT22;3516;47.980;8.808;2022-07-24T14:52:04;27.60;61.20
6954;DHT22;3516;47.980;8.808;2022-07-24T14:54:32;27.60;61.20
6954;DHT22;3516;47.980;8.808;2022-07-24T14:56:58;27.60;61.10
6954;DHT22;3516;47.980;8.808;2022-07-24T14:59:26;27.60;61.10
6954;DHT22;3516;47.980;8.808;2022-07-24T15:01:53;27.60;61.00
6954;DHT22;3516;47.980;8.808;2022-07-24T15:04:19;27.60;60.80
6954;DHT22;3516;47.980;8.808;2022-07-24T15:06:46;27.60;60.70
6954;DHT22;3516;47.980;8.808;2022-07-24T15:09:13;27.60;60.50
6954;DHT22;3516;47.980;8.808;2022-07-24T15:11:41;27.60;60.40
6954;DHT22;3516;47.980;8.808;2022-07-24T15:14:08;27.60;60.30
6954;DHT22;3516;47.980;8.808;2022-07-24T15:16:35;27.60;60.10
6954;DHT22;3516;47.980;8.808;2022-07-24T15:19:02;27.60;60.00
6954;DHT22;3516;47.980;8.808;2022-07-24T15:21:28;27.60;59.90
6954;DHT22;3516;47.980;8.808;2022-07-24T15:23:55;27.60;59.80
6954;DHT22;3516;47.980;8.808;2022-07-24T15:26:23;27.60;59.70
6954;DHT22;3516;47.980;8.808;2022-07-24T15:28:51;27.60;59.70
6954;DHT22;3516;47.980;8.808;2022-07-24T15:31:18;27.60;59.60
6954;DHT22;3516;47.980;8.808;2022-07-24T15:33:47;27.50;59.50
6954;DHT22;3516;47.980;8.808;2022-07-24T15:36:13;27.60;59.50
6954;DHT22;3516;47.980;8.808;2022-07-24T15:38:40;27.60;59.40
6954;DHT22;3516;47.980;8.808;2022-07-24T15:41:07;27.60;59.40
6954;DHT22;3516;47.980;8.808;2022-07-24T15:43:33;27.60;59.40
6954;DHT22;3516;47.980;8.808;2022-07-24T15:46:02;27.60;59.30
6954;DHT22;3516;47.980;8.808;2022-07-24T15:48:28;27.60;59.20
6954;DHT22;3516;47.980;8.808;2022-07-24T15:50:55;27.50;59.10
6954;DHT22;3516;47.980;8.808;2022-07-24T15:53:22;27.60;59.10
6954;DHT22;3516;47.980;8.808;2022-07-24T15:55:48;27.50;59.10
6954;DHT22;3516;47.980;8.808;2022-07-24T15:58:15;27.50;59.00
6954;DHT22;3516;47.980;8.808;2022-07-24T16:00:42;27.50;59.00
6954;DHT22;3516;47.980;8.808;2022-07-24T16:03:10;27.60;59.00
6954;DHT22;3516;47.980;8.808;2022-07-24T16:05:36;27.50;58.90
6954;DHT22;3516;47.980;8.808;2022-07-24T16:08:03;27.60;58.90
6954;DHT22;3516;47.980;8.808;2022-07-24T16:10:30;27.60;58.90
6954;DHT22;3516;47.980;8.808;2022-07-24T16:12:57;27.60;58.80
6954;DHT22;3516;47.980;8.808;2022-07-24T16:15:23;27.60;58.80
6954;DHT22;3516;47.980;8.808;2022-07-24T16:17:50;27.60;58.70
6954;DHT22;3516;47.980;8.808;2022-07-24T16:20:18;27.60;58.60
6954;DHT22;3516;47.980;8.808;2022-07-24T16:22:45;27.50;58.40
6954;DHT22;3516;47.980;8.808;2022-07-24T16:25:11;27.60;58.30
6954;DHT22;3516;47.980;8.808;2022-07-24T16:27:38;27.50;58.10
6954;DHT22;3516;47.980;8.808;2022-07-24T16:30:05;27.50;58.00
6954;DHT22;3516;47.980;8.808;2022-07-24T16:32:32;27.50;58.40
6954;DHT22;3516;47.980;8.808;2022-07-24T16:34:59;27.50;57.60
6954;DHT22;3516;47.980;8.808;2022-07-24T16:37:27;27.50;57.60
6954;DHT22;3516;47.980;8.808;2022-07-24T16:39:54;27.50;57.60
6954;DHT22;3516;47.980;8.808;2022-07-24T16:42:20;27.50;57.60
6954;DHT22;3516;47.980;8.808;2022-07-24T16:44:47;27.50;57.60
6954;DHT22;3516;47.980;8.808;2022-07-24T16:47:14;27.50;57.60
6954;DHT22;3516;47.980;8.808;2022-07-24T16:49:40;27.50;57.40
6954;DHT22;3516;47.980;8.808;2022-07-24T16:52:07;27.50;57.30
6954;DHT22;3516;47.980;8.808;2022-07-24T16:54:38;27.50;57.20
6954;DHT22;3516;47.980;8.808;2022-07-24T16:57:05;27.50;57.10
6954;DHT22;3516;47.980;8.808;2022-07-24T16:59:31;27.50;57.00
6954;DHT22;3516;47.980;8.808;2022-07-24T17:01:58;27.50;56.90
6954;DHT22;3516;47.980;8.808;2022-07-24T17:04:25;27.50;56.90
6954;DHT22;3516;47.980;8.808;2022-07-24T17:06:51;27.50;56.80
6954;DHT22;3516;47.980;8.808;2022-07-24T17:09:18;27.50;56.80
6954;DHT22;3516;47.980;8.808;2022-07-24T17:11:46;27.50;56.70
6954;DHT22;3516;47.980;8.808;2022-07-24T17:14:17;27.50;56.70
6954;DHT22;3516;47.980;8.808;2022-07-24T17:16:43;27.50;56.70
6954;DHT22;3516;47.980;8.808;2022-07-24T17:19:10;27.50;56.60
6954;DHT22;3516;47.980;8.808;2022-07-24T17:21:37;27.50;56.50
6954;DHT22;3516;47.980;8.808;2022-07-24T17:24:04;27.50;56.40
6954;DHT22;3516;47.980;8.808;2022-07-24T17:26:31;27.50;56.40
6954;DHT22;3516;47.980;8.808;2022-07-24T17:28:59;27.50;56.30
6954;DHT22;3516;47.980;8.808;2022-07-24T17:31:26;27.50;56.30
6954;DHT22;3516;47.980;8.808;2022-07-24T17:33:52;27.50;56.30
6954;DHT22;3516;47.980;8.808;2022-07-24T17:36:19;27.50;56.20
6954;DHT22;3516;47.980;8.808;2022-07-24T17:38:46;27.50;56.20
6954;DHT22;3516;47.980;8.808;2022-07-24T17:41:13;27.50;56.20
6954;DHT22;3516;47.980;8.808;2022-07-24T17:43:40;27.50;56.10
6954;DHT22;3516;47.980;8.808;2022-07-24T17:46:08;27.50;56.10
6954;DHT22;3516;47.980;8.808;2022-07-24T17:48:35;27.50;56.10
6954;DHT22;3516;47.980;8.808;2022-07-24T17:51:02;27.40;56.00
6954;DHT22;3516;47.980;8.808;2022-07-24T17:53:28;27.50;56.00
6954;DHT22;3516;47.980;8.808;2022-07-24T17:55:55;27.50;56.10
6954;DHT22;3516;47.980;8.808;2022-07-24T17:58:22;27.50;56.10
6954;DHT22;3516;47.980;8.808;2022-07-24T18:00:48;27.50;56.10
6954;DHT22;3516;47.980;8.808;2022-07-24T18:03:16;27.50;56.10
6954;DHT22;3516;47.980;8.808;2022-07-24T18:05:43;27.50;56.20
6954;DHT22;3516;47.980;8.808;2022-07-24T18:08:11;27.50;56.20
6954;DHT22;3516;47.980;8.808;2022-07-24T18:10:37;27.50;56.30
6954;DHT22;3516;47.980;8.808;2022-07-24T18:13:04;27.50;56.40
6954;DHT22;3516;47.980;8.808;2022-07-24T18:15:31;27.50;56.40
6954;DHT22;3516;47.980;8.808;2022-07-24T18:17:57;27.50;56.60
6954;DHT22;3516;47.980;8.808;2022-07-24T18:20:25;27.50;56.60
6954;DHT22;3516;47.980;8.808;2022-07-24T18:22:52;27.50;56.80
6954;DHT22;3516;47.980;8.808;2022-07-24T18:25:19;27.60;57.00
6954;DHT22;3516;47.980;8.808;2022-07-24T18:27:46;27.60;57.20
6954;DHT22;3516;47.980;8.808;2022-07-24T18:30:13;27.60;57.40
6954;DHT22;3516;47.980;8.808;2022-07-24T18:32:41;27.60;57.60
6954;DHT22;3516;47.980;8.808;2022-07-24T18:35:08;27.60;57.60
6954;DHT22;3516;47.980;8.808;2022-07-24T18:37:36;27.60;57.60
6954;DHT22;3516;47.980;8.808;2022-07-24T18:40:03;27.60;57.60
6954;DHT22;3516;47.980;8.808;2022-07-24T18:42:30;27.60;57.60
6954;DHT22;3516;47.980;8.808;2022-07-24T18:44:56;27.60;57.80
6954;DHT22;3516;47.980;8.808;2022-07-24T18:47:23;27.60;58.00
6954;DHT22;3516;47.980;8.808;2022-07-24T18:49:50;27.60;58.10
6954;DHT22;3516;47.980;8.808;2022-07-24T18:52:16;27.60;58.40
6954;DHT22;3516;47.980;8.808;2022-07-24T18:54:44;27.60;58.60
6954;DHT22;3516;47.980;8.808;2022-07-24T18:57:11;27.60;58.70
6954;DHT22;3516;47.980;8.808;2022-07-24T18:59:39;27.60;58.90
6954;DHT22;3516;47.980;8.808;2022-07-24T19:02:05;27.60;59.00
6954;DHT22;3516;47.980;8.808;2022-07-24T19:04:32;27.60;59.20
6954;DHT22;3516;47.980;8.808;2022-07-24T19:07:01;27.60;59.30
6954;DHT22;3516;47.980;8.808;2022-07-24T19:09:30;27.60;59.50
6954;DHT22;3516;47.980;8.808;2022-07-24T19:11:58;27.60;59.70
6954;DHT22;3516;47.980;8.808;2022-07-24T19:14:25;27.70;59.90
6954;DHT22;3516;47.980;8.808;2022-07-24T19:16:51;27.60;60.00
6954;DHT22;3516;47.980;8.808;2022-07-24T19:19:18;27.60;60.20
6954;DHT22;3516;47.980;8.808;2022-07-24T19:21:46;27.60;60.40
6954;DHT22;3516;47.980;8.808;2022-07-24T19:24:13;27.60;60.50
6954;DHT22;3516;47.980;8.808;2022-07-24T19:26:39;27.60;60.70
6954;DHT22;3516;47.980;8.808;2022-07-24T19:29:07;27.60;60.90
6954;DHT22;3516;47.980;8.808;2022-07-24T19:31:34;27.60;61.10
6954;DHT22;3516;47.980;8.808;2022-07-24T19:34:01;27.60;61.30
6954;DHT22;3516;47.980;8.808;2022-07-24T19:36:28;27.60;61.60
6954;DHT22;3516;47.980;8.808;2022-07-24T19:38:56;27.60;61.70
6954;DHT22;3516;47.980;8.808;2022-07-24T19:41:23;27.60;62.00
6954;DHT22;3516;47.980;8.808;2022-07-24T19:43:50;27.60;62.20
6954;DHT22;3516;47.980;8.808;2022-07-24T19:46:18;27.60;62.40
6954;DHT22;3516;47.980;8.808;2022-07-24T19:48:44;27.60;62.60
6954;DHT22;3516;47.980;8.808;2022-07-24T19:51:11;27.60;62.90
6954;DHT22;3516;47.980;8.808;2022-07-24T19:53:38;27.60;63.10
6954;DHT22;3516;47.980;8.808;2022-07-24T19:56:04;27.60;63.10
6954;DHT22;3516;47.980;8.808;2022-07-24T19:58:31;27.60;63.10
6954;DHT22;3516;47.980;8.808;2022-07-24T20:00:58;27.60;63.10
6954;DHT22;3516;47.980;8.808;2022-07-24T20:03:26;27.60;63.10
6954;DHT22;3516;47.980;8.808;2022-07-24T20:05:52;27.60;64.10
6954;DHT22;3516;47.980;8.808;2022-07-24T20:08:19;27.60;63.60
6954;DHT22;3516;47.980;8.808;2022-07-24T20:10:46;27.60;63.90
6954;DHT22;3516;47.980;8.808;2022-07-24T20:13:14;27.60;64.00
6954;DHT22;3516;47.980;8.808;2022-07-24T20:15:40;27.60;64.20
6954;DHT22;3516;47.980;8.808;2022-07-24T20:18:07;27.60;64.40
6954;DHT22;3516;47.980;8.808;2022-07-24T20:20:37;27.60;64.60
6954;DHT22;3516;47.980;8.808;2022-07-24T20:23:03;27.60;64.80
6954;DHT22;3516;47.980;8.808;2022-07-24T20:25:30;27.60;65.00
6954;DHT22;3516;47.980;8.808;2022-07-24T20:27:57;27.60;65.20
6954;DHT22;3516;47.980;8.808;2022-07-24T20:30:24;27.60;65.30
6954;DHT22;3516;47.980;8.808;2022-07-24T20:35:18;27.60;65.70
6954;DHT22;3516;47.980;8.808;2022-07-24T20:37:46;27.60;65.90
6954;DHT22;3516;47.980;8.808;2022-07-24T20:40:13;27.60;66.10
6954;DHT22;3516;47.980;8.808;2022-07-24T20:42:40;27.60;66.30
6954;DHT22;3516;47.980;8.808;2022-07-24T20:45:07;27.60;67.30
6954;DHT22;3516;47.980;8.808;2022-07-24T20:47:34;27.60;67.50
6954;DHT22;3516;47.980;8.808;2022-07-24T20:50:01;27.60;67.00
6954;DHT22;3516;47.980;8.808;2022-07-24T20:52:28;27.60;67.20
6954;DHT22;3516;47.980;8.808;2022-07-24T20:54:56;27.60;67.30
6954;DHT22;3516;47.980;8.808;2022-07-24T20:57:23;27.60;67.50
6954;DHT22;3516;47.980;8.808;2022-07-24T20:59:50;27.60;67.70
6954;DHT22;3516;47.980;8.808;2022-07-24T21:02:17;27.60;67.90
6954;DHT22;3516;47.980;8.808;2022-07-24T21:04:44;27.60;68.10
6954;DHT22;3516;47.980;8.808;2022-07-24T21:07:10;27.60;68.30
6954;DHT22;3516;47.980;8.808;2022-07-24T21:09:37;27.60;68.60
6954;DHT22;3516;47.980;8.808;2022-07-24T21:12:06;27.60;68.80
6954;DHT22;3516;47.980;8.808;2022-07-24T21:14:32;27.60;69.20
6954;DHT22;3516;47.980;8.808;2022-07-24T21:16:59;27.60;69.20
6954;DHT22;3516;47.980;8.808;2022-07-24T21:19:26;27.60;69.20
6954;DHT22;3516;47.980;8.808;2022-07-24T21:21:52;27.60;69.20
6954;DHT22;3516;47.980;8.808;2022-07-24T21:24:19;27.60;69.40
6954;DHT22;3516;47.980;8.808;2022-07-24T21:26:46;27.60;69.80
6954;DHT22;3516;47.980;8.808;2022-07-24T21:29:14;27.60;70.00
6954;DHT22;3516;47.980;8.808;2022-07-24T21:31:40;27.60;70.20
6954;DHT22;3516;47.980;8.808;2022-07-24T21:34:07;27.60;70.40
6954;DHT22;3516;47.980;8.808;2022-07-24T21:36:34;27.60;70.60
6954;DHT22;3516;47.980;8.808;2022-07-24T21:39:00;27.60;70.80
6954;DHT22;3516;47.980;8.808;2022-07-24T21:41:27;27.60;71.10
6954;DHT22;3516;47.980;8.808;2022-07-24T21:43:54;27.60;71.30
6954;DHT22;3516;47.980;8.808;2022-07-24T21:46:22;27.60;71.60
6954;DHT22;3516;47.980;8.808;2022-07-24T21:48:48;27.60;71.80
6954;DHT22;3516;47.980;8.808;2022-07-24T21:51:15;27.60;72.00
6954;DHT22;3516;47.980;8.808;2022-07-24T21:53:42;27.60;72.20
6954;DHT22;3516;47.980;8.808;2022-07-24T21:56:08;27.60;72.50
6954;DHT22;3516;47.980;8.808;2022-07-24T21:58:35;27.60;72.60
6954;DHT22;3516;47.980;8.808;2022-07-24T22:01:02;27.60;72.90
6954;DHT22;3516;47.980;8.808;2022-07-24T22:03:30;27.60;73.10
6954;DHT22;3516;47.980;8.808;2022-07-24T22:05:56;27.60;73.30
6954;DHT22;3516;47.980;8.808;2022-07-24T22:08:23;27.60;73.50
6954;DHT22;3516;47.980;8.808;2022-07-24T22:10:50;27.60;73.70
6954;DHT22;3516;47.980;8.808;2022-07-24T22:13:16;27.60;74.00
6954;DHT22;3516;47.980;8.808;2022-07-24T22:15:43;27.60;74.20
6954;DHT22;3516;47.980;8.808;2022-07-24T22:18:10;27.60;74.40
6954;DHT22;3516;47.980;8.808;2022-07-24T22:20:38;27.60;74.70
6954;DHT22;3516;47.980;8.808;2022-07-24T22:23:05;27.60;74.90
6954;DHT22;3516;47.980;8.808;2022-07-24T22:25:32;27.60;75.20
6954;DHT22;3516;47.980;8.808;2022-07-24T22:27:59;27.60;75.20
6954;DHT22;3516;47.980;8.808;2022-07-24T22:30:25;27.60;75.20
6954;DHT22;3516;47.980;8.808;2022-07-24T22:32:52;27.60;75.20
6954;DHT22;3516;47.980;8.808;2022-07-24T22:35:19;27.60;75.20
6954;DHT22;3516;47.980;8.808;2022-07-24T22:37:47;27.60;75.50
6954;DHT22;3516;47.980;8.808;2022-07-24T22:40:14;27.60;75.80
6954;DHT22;3516;47.980;8.808;2022-07-24T22:42:41;27.60;76.00
6954;DHT22;3516;47.980;8.808;2022-07-24T22:45:08;27.60;76.10
6954;DHT22;3516;47.980;8.808;2022-07-24T22:47:35;27.60;76.30
6954;DHT22;3516;47.980;8.808;2022-07-24T22:50:02;27.60;76.40
